sensor_id;sensor_type;location;lat;lon;timestamp;P1;durP1;ratioP1;P2;durP2;ratioP2
19193;SDS011;9729;52.296;13.260;2023-10-13T00:01:42;15.17;;;6.63;;
19193;SDS011;9729;52.296;13.260;2023-10-13T00:04:09;10.40;;;6.90;;
19193;SDS011;9729;52.296;13.260;2023-10-13T00:06:36;8.93;;;6.97;;
19193;SDS011;9729;52.296;13.260;2023-10-13T00:09:03;12.33;;;7.43;;
19193;SDS011;9729;52.296;13.260;2023-10-13T00:11:31;9.27;;;7.07;;
19193;SDS011;9729;52.296;13.260;2023-10-13T00:13:57;11.93;;;7.87;;
19193;SDS011;9729;52.296;13.260;2023-10-13T00:16:28;9.10;;;8.13;;
19193;SDS011;9729;52.296;13.260;2023-10-13T00:18:55;13.00;;;8.07;;
19193;SDS011;9729;52.296;13.260;2023-10-13T00:21:22;9.03;;;7.47;;
19193;SDS011;9729;52.296;13.260;2023-10-13T00:23:57;11.10;;;8.30;;
19193;SDS011;9729;52.296;13.260;2023-10-13T00:26:27;13.00;;;8.30;;
19193;SDS011;9729;52.296;13.260;2023-10-13T00:28:56;13.23;;;8.47;;
19193;SDS011;9729;52.296;13.260;2023-10-13T00:31:34;10.43;;;8.30;;
19193;SDS011;9729;52.296;13.260;2023-10-13T00:34:03;11.97;;;9.17;;
19193;SDS011;9729;52.296;13.260;2023-10-13T00:36:43;13.40;;;8.97;;
19193;SDS011;9729;52.296;13.260;2023-10-13T00:39:13;14.60;;;10.53;;
19193;SDS011;9729;52.296;13.260;2023-10-13T00:41:40;14.67;;;9.00;;
19193;SDS011;9729;52.296;13.260;2023-10-13T00:44:18;12.73;;;9.03;;
19193;SDS011;9729;52.296;13.260;2023-10-13T00:46:51;12.17;;;9.67;;
19193;SDS011;9729;52.296;13.260;2023-10-13T00:49:21;17.17;;;9.90;;
19193;SDS011;9729;52.296;13.260;2023-10-13T00:51:48;15.40;;;10.70;;
19193;SDS011;9729;52.296;13.260;2023-10-13T00:54:14;14.80;;;10.73;;
19193;SDS011;9729;52.296;13.260;2023-10-13T00:56:43;19.77;;;10.97;;
19193;SDS011;9729;52.296;13.260;2023-10-13T00:59:13;16.97;;;10.50;;
19193;SDS011;9729;52.296;13.260;2023-10-13T01:01:41;16.80;;;10.40;;
19193;SDS011;9729;52.296;13.260;2023-10-13T01:04:08;14.53;;;10.10;;
19193;SDS011;9729;52.296;13.260;2023-10-13T01:06:37;16.77;;;11.40;;
19193;SDS011;9729;52.296;13.260;2023-10-13T01:09:03;14.97;;;10.13;;
19193;SDS011;9729;52.296;13.260;2023-10-13T01:11:38;15.03;;;9.23;;
19193;SDS011;9729;52.296;13.260;2023-10-13T01:14:04;19.90;;;9.80;;
19193;SDS011;9729;52.296;13.260;2023-10-13T01:16:31;10.37;;;8.80;;
19193;SDS011;9729;52.296;13.260;2023-10-13T01:18:59;19.03;;;9.30;;
19193;SDS011;9729;52.296;13.260;2023-10-13T01:21:25;15.83;;;9.73;;
19193;SDS011;9729;52.296;13.260;2023-10-13T01:23:54;15.17;;;10.53;;
19193;SDS011;9729;52.296;13.260;2023-10-13T01:26:19;18.80;;;9.93;;
19193;SDS011;9729;52.296;13.260;2023-10-13T01:28:49;17.73;;;10.30;;
19193;SDS011;9729;52.296;13.260;2023-10-13T01:31:15;21.53;;;10.27;;
19193;SDS011;9729;52.296;13.260;2023-10-13T01:33:51;19.63;;;9.77;;
19193;SDS011;9729;52.296;13.260;2023-10-13T01:36:19;15.13;;;9.63;;
19193;SDS011;9729;52.296;13.260;2023-10-13T01:38:49;17.03;;;10.13;;
19193;SDS011;9729;52.296;13.260;2023-10-13T01:41:16;17.63;;;9.80;;
19193;SDS011;9729;52.296;13.260;2023-10-13T01:43:43;16.20;;;9.30;;
19193;SDS011;9729;52.296;13.260;2023-10-13T01:46:08;15.63;;;9.40;;
19193;SDS011;9729;52.296;13.260;2023-10-13T01:48:38;13.27;;;9.80;;
19193;SDS011;9729;52.296;13.260;2023-10-13T01:51:05;18.83;;;9.77;;
19193;SDS011;9729;52.296;13.260;2023-10-13T01:53:34;16.03;;;10.37;;
19193;SDS011;9729;52.296;13.260;2023-10-13T01:56:01;19.83;;;9.23;;
19193;SDS011;9729;52.296;13.260;2023-10-13T01:58:36;17.70;;;10.27;;
19193;SDS011;9729;52.296;13.260;2023-10-13T02:01:03;17.37;;;10.70;;
19193;SDS011;9729;52.296;13.260;2023-10-13T02:03:32;15.30;;;9.67;;
19193;SDS011;9729;52.296;13.260;2023-10-13T02:05:58;14.27;;;9.67;;
19193;SDS011;9729;52.296;13.260;2023-10-13T02:08:29;16.40;;;9.80;;
19193;SDS011;9729;52.296;13.260;2023-10-13T02:10:55;22.30;;;10.77;;
19193;SDS011;9729;52.296;13.260;2023-10-13T02:13:23;15.83;;;10.77;;
19193;SDS011;9729;52.296;13.260;2023-10-13T02:15:53;15.03;;;11.00;;
19193;SDS011;9729;52.296;13.260;2023-10-13T02:18:21;15.67;;;11.57;;
19193;SDS011;9729;52.296;13.260;2023-10-13T02:20:51;22.33;;;10.67;;
19193;SDS011;9729;52.296;13.260;2023-10-13T02:23:20;21.07;;;11.53;;
19193;SDS011;9729;52.296;13.260;2023-10-13T02:25:46;17.10;;;10.63;;
19193;SDS011;9729;52.296;13.260;2023-10-13T02:28:13;17.83;;;11.90;;
19193;SDS011;9729;52.296;13.260;2023-10-13T02:30:39;18.07;;;12.23;;
19193;SDS011;9729;52.296;13.260;2023-10-13T02:33:10;17.67;;;11.77;;
19193;SDS011;9729;52.296;13.260;2023-10-13T02:35:37;17.33;;;11.80;;
19193;SDS011;9729;52.296;13.260;2023-10-13T02:38:15;26.40;;;14.30;;
19193;SDS011;9729;52.296;13.260;2023-10-13T02:40:51;18.37;;;12.53;;
19193;SDS011;9729;52.296;13.260;2023-10-13T02:43:16;19.43;;;12.87;;
19193;SDS011;9729;52.296;13.260;2023-10-13T02:45:51;26.27;;;13.50;;
19193;SDS011;9729;52.296;13.260;2023-10-13T02:48:23;21.73;;;13.03;;
19193;SDS011;9729;52.296;13.260;2023-10-13T02:50:56;20.13;;;13.23;;
19193;SDS011;9729;52.296;13.260;2023-10-13T02:53:26;33.30;;;12.90;;
19193;SDS011;9729;52.296;13.260;2023-10-13T02:55:53;25.20;;;13.60;;
19193;SDS011;9729;52.296;13.260;2023-10-13T02:58:21;25.50;;;14.90;;
19193;SDS011;9729;52.296;13.260;2023-10-13T03:00:48;18.43;;;13.43;;
19193;SDS011;9729;52.296;13.260;2023-10-13T03:03:13;24.70;;;14.40;;
19193;SDS011;9729;52.296;13.260;2023-10-13T03:05:44;18.30;;;11.90;;
19193;SDS011;9729;52.296;13.260;2023-10-13T03:08:10;22.27;;;13.40;;
19193;SDS011;9729;52.296;13.260;2023-10-13T03:10:42;30.03;;;15.10;;
19193;SDS011;9729;52.296;13.260;2023-10-13T03:13:12;21.77;;;14.03;;
19193;SDS011;9729;52.296;13.260;2023-10-13T03:15:38;27.23;;;14.43;;
19193;SDS011;9729;52.296;13.260;2023-10-13T03:18:05;18.90;;;14.33;;
19193;SDS011;9729;52.296;13.260;2023-10-13T03:20:30;22.53;;;13.83;;
19193;SDS011;9729;52.296;13.260;2023-10-13T03:22:59;22.83;;;14.80;;
19193;SDS011;9729;52.296;13.260;2023-10-13T03:25:24;27.37;;;14.70;;
19193;SDS011;9729;52.296;13.260;2023-10-13T03:28:01;32.17;;;15.63;;
19193;SDS011;9729;52.296;13.260;2023-10-13T03:30:30;27.37;;;15.20;;
19193;SDS011;9729;52.296;13.260;2023-10-13T03:33:04;28.73;;;15.60;;
19193;SDS011;9729;52.296;13.260;2023-10-13T03:35:35;27.50;;;14.93;;
19193;SDS011;9729;52.296;13.260;2023-10-13T03:38:07;23.00;;;15.30;;
19193;SDS011;9729;52.296;13.260;2023-10-13T03:40:41;27.23;;;15.33;;
19193;SDS011;9729;52.296;13.260;2023-10-13T03:43:13;29.13;;;15.37;;
19193;SDS011;9729;52.296;13.260;2023-10-13T03:45:42;27.47;;;16.63;;
19193;SDS011;9729;52.296;13.260;2023-10-13T03:48:13;28.37;;;16.87;;
19193;SDS011;9729;52.296;13.260;2023-10-13T03:50:53;34.43;;;16.93;;
19193;SDS011;9729;52.296;13.260;2023-10-13T03:53:29;33.27;;;17.33;;
19193;SDS011;9729;52.296;13.260;2023-10-13T03:55:58;25.90;;;15.17;;
19193;SDS011;9729;52.296;13.260;2023-10-13T03:58:33;30.00;;;17.03;;
19193;SDS011;9729;52.296;13.260;2023-10-13T04:01:00;25.17;;;17.43;;
19193;SDS011;9729;52.296;13.260;2023-10-13T04:03:28;33.50;;;18.23;;
19193;SDS011;9729;52.296;13.260;2023-10-13T04:06:08;29.03;;;17.70;;
19193;SDS011;9729;52.296;13.260;2023-10-13T04:08:42;26.63;;;16.80;;
19193;SDS011;9729;52.296;13.260;2023-10-13T04:11:13;31.60;;;17.83;;
19193;SDS011;9729;52.296;13.260;2023-10-13T04:13:57;28.37;;;16.67;;
19193;SDS011;9729;52.296;13.260;2023-10-13T04:16:41;24.03;;;16.23;;
19193;SDS011;9729;52.296;13.260;2023-10-13T04:19:17;29.50;;;17.13;;
19193;SDS011;9729;52.296;13.260;2023-10-13T04:21:49;34.40;;;17.07;;
19193;SDS011;9729;52.296;13.260;2023-10-13T04:24:25;30.07;;;17.43;;
19193;SDS011;9729;52.296;13.260;2023-10-13T04:27:24;26.47;;;16.90;;
19193;SDS011;9729;52.296;13.260;2023-10-13T04:30:06;31.40;;;17.40;;
19193;SDS011;9729;52.296;13.260;2023-10-13T04:32:49;33.97;;;18.70;;
19193;SDS011;9729;52.296;13.260;2023-10-13T04:35:31;35.50;;;18.00;;
19193;SDS011;9729;52.296;13.260;2023-10-13T04:38:01;30.23;;;17.70;;
19193;SDS011;9729;52.296;13.260;2023-10-13T04:40:44;33.27;;;17.13;;
19193;SDS011;9729;52.296;13.260;2023-10-13T04:43:24;35.03;;;17.23;;
19193;SDS011;9729;52.296;13.260;2023-10-13T04:46:02;45.73;;;17.80;;
19193;SDS011;9729;52.296;13.260;2023-10-13T04:48:39;32.13;;;18.63;;
19193;SDS011;9729;52.296;13.260;2023-10-13T04:51:12;34.87;;;18.43;;
19193;SDS011;9729;52.296;13.260;2023-10-13T04:54:14;29.10;;;18.27;;
19193;SDS011;9729;52.296;13.260;2023-10-13T04:56:52;30.13;;;18.37;;
19193;SDS011;9729;52.296;13.260;2023-10-13T04:59:50;36.70;;;19.37;;
19193;SDS011;9729;52.296;13.260;2023-10-13T05:02:35;31.03;;;19.27;;
19193;SDS011;9729;52.296;13.260;2023-10-13T05:05:27;35.37;;;19.53;;
19193;SDS011;9729;52.296;13.260;2023-10-13T05:08:11;36.30;;;20.33;;
19193;SDS011;9729;52.296;13.260;2023-10-13T05:10:55;35.00;;;20.73;;
19193;SDS011;9729;52.296;13.260;2023-10-13T05:13:40;30.43;;;19.30;;
19193;SDS011;9729;52.296;13.260;2023-10-13T05:16:24;35.70;;;20.07;;
19193;SDS011;9729;52.296;13.260;2023-10-13T05:19:08;46.80;;;19.97;;
19193;SDS011;9729;52.296;13.260;2023-10-13T05:21:52;35.40;;;19.20;;
19193;SDS011;9729;52.296;13.260;2023-10-13T05:24:35;35.57;;;19.53;;
19193;SDS011;9729;52.296;13.260;2023-10-13T05:27:19;31.57;;;19.97;;
19193;SDS011;9729;52.296;13.260;2023-10-13T05:30:05;31.27;;;20.17;;
19193;SDS011;9729;52.296;13.260;2023-10-13T05:32:50;38.73;;;20.33;;
19193;SDS011;9729;52.296;13.260;2023-10-13T05:35:34;30.70;;;19.33;;
19193;SDS011;9729;52.296;13.260;2023-10-13T05:38:18;36.60;;;20.63;;
19193;SDS011;9729;52.296;13.260;2023-10-13T05:41:16;36.40;;;19.43;;
19193;SDS011;9729;52.296;13.260;2023-10-13T05:44:00;30.83;;;20.50;;
19193;SDS011;9729;52.296;13.260;2023-10-13T05:46:46;35.47;;;21.33;;
19193;SDS011;9729;52.296;13.260;2023-10-13T05:49:26;37.07;;;20.23;;
19193;SDS011;9729;52.296;13.260;2023-10-13T05:52:14;35.87;;;20.63;;
19193;SDS011;9729;52.296;13.260;2023-10-13T05:55:00;37.20;;;21.00;;
19193;SDS011;9729;52.296;13.260;2023-10-13T05:57:44;32.33;;;20.83;;
19193;SDS011;9729;52.296;13.260;2023-10-13T06:00:28;36.93;;;21.40;;
19193;SDS011;9729;52.296;13.260;2023-10-13T06:03:13;40.43;;;20.53;;
19193;SDS011;9729;52.296;13.260;2023-10-13T06:05:57;40.07;;;22.33;;
19193;SDS011;9729;52.296;13.260;2023-10-13T06:08:41;38.57;;;21.40;;
19193;SDS011;9729;52.296;13.260;2023-10-13T06:11:25;38.30;;;22.10;;
19193;SDS011;9729;52.296;13.260;2023-10-13T06:14:09;38.80;;;21.17;;
19193;SDS011;9729;52.296;13.260;2023-10-13T06:16:53;36.07;;;21.07;;
19193;SDS011;9729;52.296;13.260;2023-10-13T06:19:38;32.43;;;21.00;;
19193;SDS011;9729;52.296;13.260;2023-10-13T06:22:24;34.67;;;20.27;;
19193;SDS011;9729;52.296;13.260;2023-10-13T06:25:08;31.03;;;18.73;;
19193;SDS011;9729;52.296;13.260;2023-10-13T06:27:52;41.77;;;19.20;;
19193;SDS011;9729;52.296;13.260;2023-10-13T06:30:36;31.50;;;18.47;;
19193;SDS011;9729;52.296;13.260;2023-10-13T06:33:03;29.33;;;19.20;;
19193;SDS011;9729;52.296;13.260;2023-10-13T06:35:31;37.77;;;17.87;;
19193;SDS011;9729;52.296;13.260;2023-10-13T06:37:59;24.93;;;18.03;;
19193;SDS011;9729;52.296;13.260;2023-10-13T06:40:26;36.93;;;20.47;;
19193;SDS011;9729;52.296;13.260;2023-10-13T06:42:58;34.60;;;19.60;;
19193;SDS011;9729;52.296;13.260;2023-10-13T06:45:37;27.67;;;17.70;;
19193;SDS011;9729;52.296;13.260;2023-10-13T06:48:03;26.53;;;18.27;;
19193;SDS011;9729;52.296;13.260;2023-10-13T06:50:32;31.43;;;18.47;;
19193;SDS011;9729;52.296;13.260;2023-10-13T06:53:04;30.03;;;18.50;;
19193;SDS011;9729;52.296;13.260;2023-10-13T06:55:30;28.77;;;18.20;;
19193;SDS011;9729;52.296;13.260;2023-10-13T06:58:00;27.40;;;16.80;;
19193;SDS011;9729;52.296;13.260;2023-10-13T07:00:26;34.43;;;17.57;;
19193;SDS011;9729;52.296;13.260;2023-10-13T07:02:55;27.37;;;17.87;;
19193;SDS011;9729;52.296;13.260;2023-10-13T07:05:33;24.23;;;16.57;;
19193;SDS011;9729;52.296;13.260;2023-10-13T07:08:00;22.83;;;15.77;;
19193;SDS011;9729;52.296;13.260;2023-10-13T07:10:29;22.13;;;15.43;;
19193;SDS011;9729;52.296;13.260;2023-10-13T07:13:00;22.17;;;15.10;;
19193;SDS011;9729;52.296;13.260;2023-10-13T07:15:26;23.97;;;14.67;;
19193;SDS011;9729;52.296;13.260;2023-10-13T07:17:52;23.30;;;13.87;;
19193;SDS011;9729;52.296;13.260;2023-10-13T07:20:24;25.83;;;13.47;;
19193;SDS011;9729;52.296;13.260;2023-10-13T07:22:59;20.80;;;13.37;;
19193;SDS011;9729;52.296;13.260;2023-10-13T07:25:28;23.27;;;12.87;;
19193;SDS011;9729;52.296;13.260;2023-10-13T07:27:57;25.57;;;13.97;;
19193;SDS011;9729;52.296;13.260;2023-10-13T07:30:24;21.87;;;13.03;;
19193;SDS011;9729;52.296;13.260;2023-10-13T07:32:52;17.03;;;12.07;;
19193;SDS011;9729;52.296;13.260;2023-10-13T07:35:19;16.87;;;11.90;;
19193;SDS011;9729;52.296;13.260;2023-10-13T07:37:49;14.80;;;11.93;;
19193;SDS011;9729;52.296;13.260;2023-10-13T07:40:18;18.60;;;12.57;;
19193;SDS011;9729;52.296;13.260;2023-10-13T07:43:04;20.47;;;12.30;;
19193;SDS011;9729;52.296;13.260;2023-10-13T07:45:35;17.43;;;11.40;;
19193;SDS011;9729;52.296;13.260;2023-10-13T07:48:02;20.27;;;11.97;;
19193;SDS011;9729;52.296;13.260;2023-10-13T07:50:32;16.40;;;12.10;;
19193;SDS011;9729;52.296;13.260;2023-10-13T07:52:59;21.80;;;12.30;;
19193;SDS011;9729;52.296;13.260;2023-10-13T07:55:31;18.37;;;11.67;;
19193;SDS011;9729;52.296;13.260;2023-10-13T07:57:58;16.73;;;12.37;;
19193;SDS011;9729;52.296;13.260;2023-10-13T08:00:25;15.57;;;10.50;;
19193;SDS011;9729;52.296;13.260;2023-10-13T08:02:57;15.03;;;10.50;;
19193;SDS011;9729;52.296;13.260;2023-10-13T08:05:34;15.63;;;11.73;;
19193;SDS011;9729;52.296;13.260;2023-10-13T08:08:20;23.80;;;10.57;;
19193;SDS011;9729;52.296;13.260;2023-10-13T08:10:52;14.77;;;10.53;;
19193;SDS011;9729;52.296;13.260;2023-10-13T08:13:20;14.27;;;10.13;;
19193;SDS011;9729;52.296;13.260;2023-10-13T08:15:47;18.57;;;10.60;;
19193;SDS011;9729;52.296;13.260;2023-10-13T08:18:14;14.53;;;10.67;;
19193;SDS011;9729;52.296;13.260;2023-10-13T08:20:55;15.93;;;10.37;;
19193;SDS011;9729;52.296;13.260;2023-10-13T08:23:27;16.20;;;10.03;;
19193;SDS011;9729;52.296;13.260;2023-10-13T08:26:21;16.20;;;9.40;;
19193;SDS011;9729;52.296;13.260;2023-10-13T08:29:18;16.90;;;11.00;;
19193;SDS011;9729;52.296;13.260;2023-10-13T08:32:02;23.90;;;10.10;;
19193;SDS011;9729;52.296;13.260;2023-10-13T08:34:46;13.63;;;9.83;;
19193;SDS011;9729;52.296;13.260;2023-10-13T08:37:35;13.13;;;9.30;;
19193;SDS011;9729;52.296;13.260;2023-10-13T08:40:12;14.90;;;9.43;;
19193;SDS011;9729;52.296;13.260;2023-10-13T08:43:10;13.40;;;9.73;;
19193;SDS011;9729;52.296;13.260;2023-10-13T08:45:37;17.37;;;9.13;;
19193;SDS011;9729;52.296;13.260;2023-10-13T08:48:23;14.47;;;9.63;;
19193;SDS011;9729;52.296;13.260;2023-10-13T08:50:56;16.40;;;9.87;;
19193;SDS011;9729;52.296;13.260;2023-10-13T08:53:29;19.57;;;10.03;;
19193;SDS011;9729;52.296;13.260;2023-10-13T08:55:57;18.17;;;9.27;;
19193;SDS011;9729;52.296;13.260;2023-10-13T08:58:33;16.23;;;8.83;;
19193;SDS011;9729;52.296;13.260;2023-10-13T09:01:18;15.70;;;10.20;;
19193;SDS011;9729;52.296;13.260;2023-10-13T09:03:58;13.47;;;9.43;;
19193;SDS011;9729;52.296;13.260;2023-10-13T09:06:47;14.27;;;10.27;;
19193;SDS011;9729;52.296;13.260;2023-10-13T09:09:33;16.00;;;9.67;;
19193;SDS011;9729;52.296;13.260;2023-10-13T09:12:24;15.80;;;9.27;;
19193;SDS011;9729;52.296;13.260;2023-10-13T09:15:03;18.77;;;11.13;;
19193;SDS011;9729;52.296;13.260;2023-10-13T09:17:31;17.37;;;9.93;;
19193;SDS011;9729;52.296;13.260;2023-10-13T09:20:06;13.30;;;8.90;;
19193;SDS011;9729;52.296;13.260;2023-10-13T09:22:56;12.03;;;8.83;;
19193;SDS011;9729;52.296;13.260;2023-10-13T09:25:33;14.03;;;9.13;;
19193;SDS011;9729;52.296;13.260;2023-10-13T09:28:01;21.47;;;9.67;;
19193;SDS011;9729;52.296;13.260;2023-10-13T09:30:28;12.47;;;8.80;;
19193;SDS011;9729;52.296;13.260;2023-10-13T09:32:59;12.07;;;8.40;;
19193;SDS011;9729;52.296;13.260;2023-10-13T09:35:27;12.83;;;9.20;;
19193;SDS011;9729;52.296;13.260;2023-10-13T09:37:56;14.43;;;8.30;;
19193;SDS011;9729;52.296;13.260;2023-10-13T09:40:24;16.70;;;9.10;;
19193;SDS011;9729;52.296;13.260;2023-10-13T09:42:50;15.83;;;8.37;;
19193;SDS011;9729;52.296;13.260;2023-10-13T09:45:17;12.37;;;7.87;;
19193;SDS011;9729;52.296;13.260;2023-10-13T09:47:48;11.47;;;7.20;;
19193;SDS011;9729;52.296;13.260;2023-10-13T09:50:17;11.87;;;6.90;;
19193;SDS011;9729;52.296;13.260;2023-10-13T09:52:49;11.67;;;7.90;;
19193;SDS011;9729;52.296;13.260;2023-10-13T09:55:19;9.43;;;7.00;;
19193;SDS011;9729;52.296;13.260;2023-10-13T09:57:49;12.20;;;6.87;;
19193;SDS011;9729;52.296;13.260;2023-10-13T10:00:22;11.20;;;7.77;;
19193;SDS011;9729;52.296;13.260;2023-10-13T10:03:11;9.57;;;7.40;;
19193;SDS011;9729;52.296;13.260;2023-10-13T10:05:55;15.33;;;7.07;;
19193;SDS011;9729;52.296;13.260;2023-10-13T10:08:31;10.20;;;7.20;;
19193;SDS011;9729;52.296;13.260;2023-10-13T10:14:07;10.97;;;7.60;;
19193;SDS011;9729;52.296;13.260;2023-10-13T10:16:37;10.67;;;7.20;;
19193;SDS011;9729;52.296;13.260;2023-10-13T10:19:25;16.33;;;8.00;;
19193;SDS011;9729;52.296;13.260;2023-10-13T10:22:00;12.03;;;6.93;;
19193;SDS011;9729;52.296;13.260;2023-10-13T10:24:30;13.33;;;7.87;;
19193;SDS011;9729;52.296;13.260;2023-10-13T10:26:58;10.40;;;7.53;;
19193;SDS011;9729;52.296;13.260;2023-10-13T10:29:25;12.90;;;7.43;;
19193;SDS011;9729;52.296;13.260;2023-10-13T10:31:51;12.23;;;7.77;;
19193;SDS011;9729;52.296;13.260;2023-10-13T10:34:18;11.13;;;7.67;;
19193;SDS011;9729;52.296;13.260;2023-10-13T10:36:47;14.90;;;7.93;;
19193;SDS011;9729;52.296;13.260;2023-10-13T10:39:19;13.17;;;8.03;;
19193;SDS011;9729;52.296;13.260;2023-10-13T10:41:46;14.30;;;8.43;;
19193;SDS011;9729;52.296;13.260;2023-10-13T10:44:17;15.30;;;8.60;;
19193;SDS011;9729;52.296;13.260;2023-10-13T10:46:47;12.57;;;7.80;;
19193;SDS011;9729;52.296;13.260;2023-10-13T10:49:22;12.23;;;8.37;;
19193;SDS011;9729;52.296;13.260;2023-10-13T10:51:56;14.83;;;8.60;;
19193;SDS011;9729;52.296;13.260;2023-10-13T10:54:26;11.33;;;8.33;;
19193;SDS011;9729;52.296;13.260;2023-10-13T10:56:56;15.57;;;8.77;;
19193;SDS011;9729;52.296;13.260;2023-10-13T10:59:35;14.37;;;8.20;;
19193;SDS011;9729;52.296;13.260;2023-10-13T11:02:02;12.43;;;7.73;;
19193;SDS011;9729;52.296;13.260;2023-10-13T11:04:28;14.27;;;8.37;;
19193;SDS011;9729;52.296;13.260;2023-10-13T11:07:00;14.10;;;9.23;;
19193;SDS011;9729;52.296;13.260;2023-10-13T11:09:27;16.13;;;9.13;;
19193;SDS011;9729;52.296;13.260;2023-10-13T11:12:08;14.50;;;8.50;;
19193;SDS011;9729;52.296;13.260;2023-10-13T11:14:40;17.83;;;8.90;;
19193;SDS011;9729;52.296;13.260;2023-10-13T11:17:06;14.10;;;8.60;;
19193;SDS011;9729;52.296;13.260;2023-10-13T11:19:40;13.47;;;8.63;;
19193;SDS011;9729;52.296;13.260;2023-10-13T11:22:11;18.17;;;9.37;;
19193;SDS011;9729;52.296;13.260;2023-10-13T11:24:54;19.93;;;9.37;;
19193;SDS011;9729;52.296;13.260;2023-10-13T11:27:24;13.83;;;7.90;;
19193;SDS011;9729;52.296;13.260;2023-10-13T11:30:09;18.10;;;8.43;;
19193;SDS011;9729;52.296;13.260;2023-10-13T11:32:38;14.60;;;8.43;;
19193;SDS011;9729;52.296;13.260;2023-10-13T11:35:07;14.23;;;8.57;;
19193;SDS011;9729;52.296;13.260;2023-10-13T11:37:46;21.37;;;8.87;;
19193;SDS011;9729;52.296;13.260;2023-10-13T11:40:21;13.47;;;8.30;;
19193;SDS011;9729;52.296;13.260;2023-10-13T11:43:08;26.23;;;9.23;;
19193;SDS011;9729;52.296;13.260;2023-10-13T11:45:38;12.90;;;8.57;;
19193;SDS011;9729;52.296;13.260;2023-10-13T11:48:19;12.70;;;7.40;;
19193;SDS011;9729;52.296;13.260;2023-10-13T11:50:58;11.33;;;7.33;;
19193;SDS011;9729;52.296;13.260;2023-10-13T11:53:26;13.77;;;8.50;;
19193;SDS011;9729;52.296;13.260;2023-10-13T11:55:54;11.47;;;8.50;;
19193;SDS011;9729;52.296;13.260;2023-10-13T11:58:21;17.57;;;8.03;;
19193;SDS011;9729;52.296;13.260;2023-10-13T12:00:47;13.63;;;8.10;;
19193;SDS011;9729;52.296;13.260;2023-10-13T12:03:32;13.93;;;7.43;;
19193;SDS011;9729;52.296;13.260;2023-10-13T12:06:16;10.87;;;6.60;;
19193;SDS011;9729;52.296;13.260;2023-10-13T12:08:59;18.47;;;7.57;;
19193;SDS011;9729;52.296;13.260;2023-10-13T12:11:39;19.10;;;8.07;;
19193;SDS011;9729;52.296;13.260;2023-10-13T12:14:07;13.30;;;7.73;;
19193;SDS011;9729;52.296;13.260;2023-10-13T12:16:44;19.63;;;7.83;;
19193;SDS011;9729;52.296;13.260;2023-10-13T12:19:14;13.20;;;7.50;;
19193;SDS011;9729;52.296;13.260;2023-10-13T12:21:41;14.33;;;7.20;;
19193;SDS011;9729;52.296;13.260;2023-10-13T12:24:10;19.63;;;8.43;;
19193;SDS011;9729;52.296;13.260;2023-10-13T12:26:48;16.30;;;7.67;;
19193;SDS011;9729;52.296;13.260;2023-10-13T12:29:20;11.37;;;6.50;;
19193;SDS011;9729;52.296;13.260;2023-10-13T12:31:48;12.53;;;7.40;;
19193;SDS011;9729;52.296;13.260;2023-10-13T12:34:26;15.37;;;7.10;;
19193;SDS011;9729;52.296;13.260;2023-10-13T12:37:11;17.33;;;7.37;;
19193;SDS011;9729;52.296;13.260;2023-10-13T12:40:00;14.80;;;7.47;;
19193;SDS011;9729;52.296;13.260;2023-10-13T12:42:43;21.67;;;7.70;;
19193;SDS011;9729;52.296;13.260;2023-10-13T12:45:27;10.03;;;6.53;;
19193;SDS011;9729;52.296;13.260;2023-10-13T12:48:11;12.60;;;6.77;;
19193;SDS011;9729;52.296;13.260;2023-10-13T12:50:55;15.63;;;7.17;;
19193;SDS011;9729;52.296;13.260;2023-10-13T12:53:32;13.33;;;7.27;;
19193;SDS011;9729;52.296;13.260;2023-10-13T12:56:00;20.17;;;7.27;;
19193;SDS011;9729;52.296;13.260;2023-10-13T12:58:29;20.00;;;8.90;;
19193;SDS011;9729;52.296;13.260;2023-10-13T13:00:58;19.43;;;7.23;;
19193;SDS011;9729;52.296;13.260;2023-10-13T13:03:31;12.70;;;7.47;;
19193;SDS011;9729;52.296;13.260;2023-10-13T13:05:57;20.47;;;7.17;;
19193;SDS011;9729;52.296;13.260;2023-10-13T13:08:24;15.80;;;6.50;;
19193;SDS011;9729;52.296;13.260;2023-10-13T13:10:50;15.97;;;7.27;;
19193;SDS011;9729;52.296;13.260;2023-10-13T13:13:18;17.00;;;7.13;;
19193;SDS011;9729;52.296;13.260;2023-10-13T13:15:49;17.77;;;8.00;;
19193;SDS011;9729;52.296;13.260;2023-10-13T13:18:15;23.40;;;7.90;;
19193;SDS011;9729;52.296;13.260;2023-10-13T13:20:42;21.00;;;7.83;;
19193;SDS011;9729;52.296;13.260;2023-10-13T13:23:18;17.73;;;7.10;;
19193;SDS011;9729;52.296;13.260;2023-10-13T13:25:44;12.63;;;6.93;;
19193;SDS011;9729;52.296;13.260;2023-10-13T13:28:11;17.33;;;8.07;;
19193;SDS011;9729;52.296;13.260;2023-10-13T13:30:39;19.03;;;8.40;;
19193;SDS011;9729;52.296;13.260;2023-10-13T13:33:06;27.40;;;9.87;;
19193;SDS011;9729;52.296;13.260;2023-10-13T13:35:37;21.97;;;8.07;;
19193;SDS011;9729;52.296;13.260;2023-10-13T13:38:03;14.63;;;7.37;;
19193;SDS011;9729;52.296;13.260;2023-10-13T13:40:36;13.03;;;7.50;;
19193;SDS011;9729;52.296;13.260;2023-10-13T13:43:03;12.93;;;7.10;;
19193;SDS011;9729;52.296;13.260;2023-10-13T13:45:29;13.50;;;7.30;;
19193;SDS011;9729;52.296;13.260;2023-10-13T13:47:58;15.30;;;7.33;;
19193;SDS011;9729;52.296;13.260;2023-10-13T13:50:25;18.87;;;7.10;;
19193;SDS011;9729;52.296;13.260;2023-10-13T13:52:54;17.00;;;8.07;;
19193;SDS011;9729;52.296;13.260;2023-10-13T13:55:21;19.07;;;7.63;;
19193;SDS011;9729;52.296;13.260;2023-10-13T13:57:48;13.43;;;6.70;;
19193;SDS011;9729;52.296;13.260;2023-10-13T14:00:15;25.23;;;7.83;;
19193;SDS011;9729;52.296;13.260;2023-10-13T14:02:53;21.13;;;6.70;;
19193;SDS011;9729;52.296;13.260;2023-10-13T14:05:21;19.57;;;7.30;;
19193;SDS011;9729;52.296;13.260;2023-10-13T14:07:48;21.27;;;7.67;;
19193;SDS011;9729;52.296;13.260;2023-10-13T14:10:15;14.10;;;6.90;;
19193;SDS011;9729;52.296;13.260;2023-10-13T14:12:56;15.63;;;8.03;;
19193;SDS011;9729;52.296;13.260;2023-10-13T14:15:31;24.63;;;7.43;;
19193;SDS011;9729;52.296;13.260;2023-10-13T14:18:04;21.30;;;7.40;;
19193;SDS011;9729;52.296;13.260;2023-10-13T14:20:33;13.90;;;7.27;;
19193;SDS011;9729;52.296;13.260;2023-10-13T14:23:04;20.47;;;7.73;;
19193;SDS011;9729;52.296;13.260;2023-10-13T14:25:32;9.87;;;7.03;;
19193;SDS011;9729;52.296;13.260;2023-10-13T14:28:02;13.77;;;7.43;;
19193;SDS011;9729;52.296;13.260;2023-10-13T14:30:29;21.10;;;7.10;;
19193;SDS011;9729;52.296;13.260;2023-10-13T14:32:56;13.50;;;7.30;;
19193;SDS011;9729;52.296;13.260;2023-10-13T14:35:23;14.23;;;7.70;;
19193;SDS011;9729;52.296;13.260;2023-10-13T14:37:52;16.73;;;6.90;;
19193;SDS011;9729;52.296;13.260;2023-10-13T14:40:18;18.87;;;6.90;;
19193;SDS011;9729;52.296;13.260;2023-10-13T14:42:46;21.37;;;7.30;;
19193;SDS011;9729;52.296;13.260;2023-10-13T14:45:13;15.13;;;7.80;;
19193;SDS011;9729;52.296;13.260;2023-10-13T14:47:41;12.47;;;7.07;;
19193;SDS011;9729;52.296;13.260;2023-10-13T14:50:08;15.97;;;8.47;;
19193;SDS011;9729;52.296;13.260;2023-10-13T14:52:42;19.50;;;7.57;;
19193;SDS011;9729;52.296;13.260;2023-10-13T14:55:10;17.03;;;7.20;;
19193;SDS011;9729;52.296;13.260;2023-10-13T14:57:43;17.70;;;7.73;;
19193;SDS011;9729;52.296;13.260;2023-10-13T15:00:11;12.73;;;7.30;;
19193;SDS011;9729;52.296;13.260;2023-10-13T15:02:39;16.70;;;8.10;;
19193;SDS011;9729;52.296;13.260;2023-10-13T15:05:08;16.93;;;7.40;;
19193;SDS011;9729;52.296;13.260;2023-10-13T15:07:35;24.57;;;8.50;;